sensor_id;sensor_type;location;lat;lon;timestamp;temperature;humidity
26703;DHT22;14316;51.074;3.704;2023-10-09T00:01:50;16.30;99.90
26703;DHT22;14316;51.074;3.704;2023-10-09T00:04:17;16.30;99.90
26703;DHT22;14316;51.074;3.704;2023-10-09T00:06:43;16.30;99.90
26703;DHT22;14316;51.074;3.704;2023-10-09T00:09:10;16.20;99.90
26703;DHT22;14316;51.074;3.704;2023-10-09T00:11:57;16.30;99.90
26703;DHT22;14316;51.074;3.704;2023-10-09T00:14:27;16.20;99.90
26703;DHT22;14316;51.074;3.704;2023-10-09T00:16:56;16.20;99.90
26703;DHT22;14316;51.074;3.704;2023-10-09T00:19:42;16.20;99.90
26703;DHT22;14316;51.074;3.704;2023-10-09T00:22:09;16.20;99.90
26703;DHT22;14316;51.074;3.704;2023-10-09T00:24:50;16.20;99.90
26703;DHT22;14316;51.074;3.704;2023-10-09T00:27:35;16.10;99.90
26703;DHT22;14316;51.074;3.704;2023-10-09T00:30:02;16.00;99.90
26703;DHT22;14316;51.074;3.704;2023-10-09T00:32:31;16.00;99.90
26703;DHT22;14316;51.074;3.704;2023-10-09T00:34:59;15.90;99.90
26703;DHT22;14316;51.074;3.704;2023-10-09T00:37:39;15.90;99.90
26703;DHT22;14316;51.074;3.704;2023-10-09T00:40:06;15.90;99.90
26703;DHT22;14316;51.074;3.704;2023-10-09T00:42:45;15.90;99.90
26703;DHT22;14316;51.074;3.704;2023-10-09T00:45:12;15.80;99.90
26703;DHT22;14316;51.074;3.704;2023-10-09T00:47:51;15.90;99.90
26703;DHT22;14316;51.074;3.704;2023-10-09T00:50:17;15.80;99.90
26703;DHT22;14316;51.074;3.704;2023-10-09T00:52:46;15.80;99.90
26703;DHT22;14316;51.074;3.704;2023-10-09T00:55:18;15.80;99.90
26703;DHT22;14316;51.074;3.704;2023-10-09T00:57:54;15.80;99.90
26703;DHT22;14316;51.074;3.704;2023-10-09T01:00:26;15.80;99.90
26703;DHT22;14316;51.074;3.704;2023-10-09T01:03:07;15.80;99.90
26703;DHT22;14316;51.074;3.704;2023-10-09T01:05:39;15.80;99.90
26703;DHT22;14316;51.074;3.704;2023-10-09T01:08:20;15.70;99.90
26703;DHT22;14316;51.074;3.704;2023-10-09T01:10:57;15.70;99.90
26703;DHT22;14316;51.074;3.704;2023-10-09T01:13:34;15.70;99.90
26703;DHT22;14316;51.074;3.704;2023-10-09T01:16:26;15.70;99.90
26703;DHT22;14316;51.074;3.704;2023-10-09T01:18:57;15.80;99.90
26703;DHT22;14316;51.074;3.704;2023-10-09T01:21:23;15.80;99.90
26703;DHT22;14316;51.074;3.704;2023-10-09T01:23:51;15.80;99.90
26703;DHT22;14316;51.074;3.704;2023-10-09T01:26:43;15.80;99.90
26703;DHT22;14316;51.074;3.704;2023-10-09T01:29:20;15.70;99.90
26703;DHT22;14316;51.074;3.704;2023-10-09T01:31:52;15.70;99.90
26703;DHT22;14316;51.074;3.704;2023-10-09T01:34:25;15.70;99.90
26703;DHT22;14316;51.074;3.704;2023-10-09T01:37:13;15.60;99.90
26703;DHT22;14316;51.074;3.704;2023-10-09T01:39:49;15.60;99.90
26703;DHT22;14316;51.074;3.704;2023-10-09T01:42:20;15.60;99.90
26703;DHT22;14316;51.074;3.704;2023-10-09T01:45:08;15.60;99.90
26703;DHT22;14316;51.074;3.704;2023-10-09T01:47:45;15.60;99.90
26703;DHT22;14316;51.074;3.704;2023-10-09T01:50:17;15.60;99.90
26703;DHT22;14316;51.074;3.704;2023-10-09T01:53:03;15.60;99.90
26703;DHT22;14316;51.074;3.704;2023-10-09T01:55:32;15.60;99.90
26703;DHT22;14316;51.074;3.704;2023-10-09T01:58:11;15.60;99.90
26703;DHT22;14316;51.074;3.704;2023-10-09T02:01:03;15.60;99.90
26703;DHT22;14316;51.074;3.704;2023-10-09T02:03:32;15.60;99.90
26703;DHT22;14316;51.074;3.704;2023-10-09T02:06:02;15.60;99.90
26703;DHT22;14316;51.074;3.704;2023-10-09T02:08:44;15.60;99.90
26703;DHT22;14316;51.074;3.704;2023-10-09T02:11:15;15.60;99.90
26703;DHT22;14316;51.074;3.704;2023-10-09T02:13:51;15.60;99.90
26703;DHT22;14316;51.074;3.704;2023-10-09T02:16:26;15.60;99.90
26703;DHT22;14316;51.074;3.704;2023-10-09T02:19:07;15.60;99.90
26703;DHT22;14316;51.074;3.704;2023-10-09T02:22:08;15.60;99.90
26703;DHT22;14316;51.074;3.704;2023-10-09T02:24:43;15.50;99.90
26703;DHT22;14316;51.074;3.704;2023-10-09T02:27:19;15.60;99.90
26703;DHT22;14316;51.074;3.704;2023-10-09T02:30:04;15.60;99.90
26703;DHT22;14316;51.074;3.704;2023-10-09T02:32:41;15.60;99.90
26703;DHT22;14316;51.074;3.704;2023-10-09T02:35:09;15.50;99.90
26703;DHT22;14316;51.074;3.704;2023-10-09T02:37:44;15.40;99.90
26703;DHT22;14316;51.074;3.704;2023-10-09T02:40:13;15.40;99.90
26703;DHT22;14316;51.074;3.704;2023-10-09T02:42:48;15.40;99.90
26703;DHT22;14316;51.074;3.704;2023-10-09T02:45:15;15.30;99.90
26703;DHT22;14316;51.074;3.704;2023-10-09T02:47:46;15.30;99.90
26703;DHT22;14316;51.074;3.704;2023-10-09T02:50:15;15.20;99.90
26703;DHT22;14316;51.074;3.704;2023-10-09T02:52:48;15.20;99.90
26703;DHT22;14316;51.074;3.704;2023-10-09T02:55:27;15.20;99.90
26703;DHT22;14316;51.074;3.704;2023-10-09T02:57:55;15.20;99.90
26703;DHT22;14316;51.074;3.704;2023-10-09T03:00:37;15.10;99.90
26703;DHT22;14316;51.074;3.704;2023-10-09T03:03:04;15.10;99.90
26703;DHT22;14316;51.074;3.704;2023-10-09T03:05:33;15.10;99.90
26703;DHT22;14316;51.074;3.704;2023-10-09T03:07:59;15.00;99.90
26703;DHT22;14316;51.074;3.704;2023-10-09T03:10:25;15.00;99.90
26703;DHT22;14316;51.074;3.704;2023-10-09T03:12:51;14.90;99.90
26703;DHT22;14316;51.074;3.704;2023-10-09T03:15:18;14.90;99.90
26703;DHT22;14316;51.074;3.704;2023-10-09T03:17:48;14.90;99.90
26703;DHT22;14316;51.074;3.704;2023-10-09T03:20:18;14.90;99.90
26703;DHT22;14316;51.074;3.704;2023-10-09T03:22:44;14.90;99.90
26703;DHT22;14316;51.074;3.704;2023-10-09T03:25:14;14.90;99.90
26703;DHT22;14316;51.074;3.704;2023-10-09T03:27:43;14.90;99.90
26703;DHT22;14316;51.074;3.704;2023-10-09T03:30:16;15.00;99.90
26703;DHT22;14316;51.074;3.704;2023-10-09T03:32:48;15.00;99.90
26703;DHT22;14316;51.074;3.704;2023-10-09T03:35:22;15.00;99.90
26703;DHT22;14316;51.074;3.704;2023-10-09T03:37:57;15.00;99.90
26703;DHT22;14316;51.074;3.704;2023-10-09T03:40:25;15.00;99.90
26703;DHT22;14316;51.074;3.704;2023-10-09T03:42:52;15.00;99.90
26703;DHT22;14316;51.074;3.704;2023-10-09T03:45:19;15.00;99.90
26703;DHT22;14316;51.074;3.704;2023-10-09T03:47:55;15.00;99.90
26703;DHT22;14316;51.074;3.704;2023-10-09T03:50:39;14.90;99.90
26703;DHT22;14316;51.074;3.704;2023-10-09T03:53:08;14.90;99.90
26703;DHT22;14316;51.074;3.704;2023-10-09T03:55:38;15.00;99.90
26703;DHT22;14316;51.074;3.704;2023-10-09T03:58:08;15.00;99.90
26703;DHT22;14316;51.074;3.704;2023-10-09T04:00:38;14.90;99.90
26703;DHT22;14316;51.074;3.704;2023-10-09T04:03:13;15.00;99.90
26703;DHT22;14316;51.074;3.704;2023-10-09T04:05:41;15.00;99.90
26703;DHT22;14316;51.074;3.704;2023-10-09T04:08:10;15.00;99.90
26703;DHT22;14316;51.074;3.704;2023-10-09T04:10:55;15.00;99.90
26703;DHT22;14316;51.074;3.704;2023-10-09T04:13:27;15.00;99.90
26703;DHT22;14316;51.074;3.704;2023-10-09T04:16:01;15.00;99.90
26703;DHT22;14316;51.074;3.704;2023-10-09T04:18:35;15.00;99.90
26703;DHT22;14316;51.074;3.704;2023-10-09T04:21:05;15.00;99.90
26703;DHT22;14316;51.074;3.704;2023-10-09T04:24:06;15.10;99.90
26703;DHT22;14316;51.074;3.704;2023-10-09T04:26:51;15.10;99.90
26703;DHT22;14316;51.074;3.704;2023-10-09T04:29:23;15.10;99.90
26703;DHT22;14316;51.074;3.704;2023-10-09T04:31:55;15.10;99.90
26703;DHT22;14316;51.074;3.704;2023-10-09T04:34:22;15.10;99.90
26703;DHT22;14316;51.074;3.704;2023-10-09T04:37:08;15.10;99.90
26703;DHT22;14316;51.074;3.704;2023-10-09T04:39:41;15.10;99.90
26703;DHT22;14316;51.074;3.704;2023-10-09T04:42:16;15.20;99.90
26703;DHT22;14316;51.074;3.704;2023-10-09T04:44:52;15.20;99.90
26703;DHT22;14316;51.074;3.704;2023-10-09T04:47:34;15.20;99.90
26703;DHT22;14316;51.074;3.704;2023-10-09T04:50:24;15.20;99.90
26703;DHT22;14316;51.074;3.704;2023-10-09T04:52:56;15.20;99.90
26703;DHT22;14316;51.074;3.704;2023-10-09T04:55:32;15.20;99.90
26703;DHT22;14316;51.074;3.704;2023-10-09T04:58:04;15.20;99.90
26703;DHT22;14316;51.074;3.704;2023-10-09T05:00:33;15.20;99.90
26703;DHT22;14316;51.074;3.704;2023-10-09T05:03:02;15.10;99.90
26703;DHT22;14316;51.074;3.704;2023-10-09T05:05:39;15.10;99.90
26703;DHT22;14316;51.074;3.704;2023-10-09T05:08:14;15.10;99.90
26703;DHT22;14316;51.074;3.704;2023-10-09T05:11:03;15.00;99.90
26703;DHT22;14316;51.074;3.704;2023-10-09T05:13:33;15.00;99.90
26703;DHT22;14316;51.074;3.704;2023-10-09T05:16:15;15.00;99.90
26703;DHT22;14316;51.074;3.704;2023-10-09T05:18:58;14.90;99.90
26703;DHT22;14316;51.074;3.704;2023-10-09T05:21:44;14.90;99.90
26703;DHT22;14316;51.074;3.704;2023-10-09T05:24:11;14.90;99.90
26703;DHT22;14316;51.074;3.704;2023-10-09T05:26:50;14.90;99.90
26703;DHT22;14316;51.074;3.704;2023-10-09T05:29:21;14.90;99.90
26703;DHT22;14316;51.074;3.704;2023-10-09T05:31:50;14.90;99.90
26703;DHT22;14316;51.074;3.704;2023-10-09T05:34:27;14.90;99.90
26703;DHT22;14316;51.074;3.704;2023-10-09T05:37:03;14.90;99.90
26703;DHT22;14316;51.074;3.704;2023-10-09T05:39:48;14.90;99.90
26703;DHT22;14316;51.074;3.704;2023-10-09T05:42:31;14.80;99.90
26703;DHT22;14316;51.074;3.704;2023-10-09T05:45:04;14.80;99.90
26703;DHT22;14316;51.074;3.704;2023-10-09T05:47:46;14.80;99.90
26703;DHT22;14316;51.074;3.704;2023-10-09T05:50:20;14.80;99.90
26703;DHT22;14316;51.074;3.704;2023-10-09T05:52:58;14.90;99.90
26703;DHT22;14316;51.074;3.704;2023-10-09T05:55:27;14.80;99.90
26703;DHT22;14316;51.074;3.704;2023-10-09T05:58:11;14.90;99.90
26703;DHT22;14316;51.074;3.704;2023-10-09T06:00:56;14.80;99.90
26703;DHT22;14316;51.074;3.704;2023-10-09T06:03:40;14.90;99.90
26703;DHT22;14316;51.074;3.704;2023-10-09T06:06:15;14.90;99.90
26703;DHT22;14316;51.074;3.704;2023-10-09T06:09:02;14.80;99.90
26703;DHT22;14316;51.074;3.704;2023-10-09T06:11:47;14.90;99.90
26703;DHT22;14316;51.074;3.704;2023-10-09T06:14:23;14.80;99.90
26703;DHT22;14316;51.074;3.704;2023-10-09T06:16:55;14.80;99.90
26703;DHT22;14316;51.074;3.704;2023-10-09T06:19:39;14.80;99.90
26703;DHT22;14316;51.074;3.704;2023-10-09T06:22:14;14.80;99.90
26703;DHT22;14316;51.074;3.704;2023-10-09T06:24:55;14.80;99.90
26703;DHT22;14316;51.074;3.704;2023-10-09T06:27:23;14.80;99.90
26703;DHT22;14316;51.074;3.704;2023-10-09T06:29:52;14.80;99.90
26703;DHT22;14316;51.074;3.704;2023-10-09T06:32:38;14.80;99.90
26703;DHT22;14316;51.074;3.704;2023-10-09T06:35:15;14.80;99.90
26703;DHT22;14316;51.074;3.704;2023-10-09T06:37:49;14.80;99.90
26703;DHT22;14316;51.074;3.704;2023-10-09T06:40:35;14.80;99.90
26703;DHT22;14316;51.074;3.704;2023-10-09T06:43:13;14.80;99.90
26703;DHT22;14316;51.074;3.704;2023-10-09T06:45:45;14.80;99.90
26703;DHT22;14316;51.074;3.704;2023-10-09T06:48:12;14.80;99.90
26703;DHT22;14316;51.074;3.704;2023-10-09T06:50:57;14.90;99.90
26703;DHT22;14316;51.074;3.704;2023-10-09T06:53:30;14.90;99.90
26703;DHT22;14316;51.074;3.704;2023-10-09T06:56:15;15.00;99.90
26703;DHT22;14316;51.074;3.704;2023-10-09T06:59:00;15.00;99.90
26703;DHT22;14316;51.074;3.704;2023-10-09T07:01:46;15.00;99.90
26703;DHT22;14316;51.074;3.704;2023-10-09T07:04:16;15.00;99.90
26703;DHT22;14316;51.074;3.704;2023-10-09T07:06:48;15.10;99.90
26703;DHT22;14316;51.074;3.704;2023-10-09T07:09:15;15.00;99.90
26703;DHT22;14316;51.074;3.704;2023-10-09T07:11:49;15.10;99.90
26703;DHT22;14316;51.074;3.704;2023-10-09T07:14:20;15.10;99.90
26703;DHT22;14316;51.074;3.704;2023-10-09T07:16:56;15.20;99.90
26703;DHT22;14316;51.074;3.704;2023-10-09T07:19:26;15.30;99.90
26703;DHT22;14316;51.074;3.704;2023-10-09T07:22:17;15.50;99.90
26703;DHT22;14316;51.074;3.704;2023-10-09T07:24:56;15.70;99.90
26703;DHT22;14316;51.074;3.704;2023-10-09T07:27:26;15.90;99.90
26703;DHT22;14316;51.074;3.704;2023-10-09T07:30:31;16.00;99.90
26703;DHT22;14316;51.074;3.704;2023-10-09T07:33:06;16.00;99.90
26703;DHT22;14316;51.074;3.704;2023-10-09T07:35:53;16.10;99.90
26703;DHT22;14316;51.074;3.704;2023-10-09T07:38:21;16.10;99.90
26703;DHT22;14316;51.074;3.704;2023-10-09T07:41:01;16.20;99.90
26703;DHT22;14316;51.074;3.704;2023-10-09T07:43:29;16.30;99.90
26703;DHT22;14316;51.074;3.704;2023-10-09T07:46:07;16.30;99.90
26703;DHT22;14316;51.074;3.704;2023-10-09T07:48:51;16.20;99.90
26703;DHT22;14316;51.074;3.704;2023-10-09T07:51:21;16.20;99.90
26703;DHT22;14316;51.074;3.704;2023-10-09T07:53:57;16.10;99.90
26703;DHT22;14316;51.074;3.704;2023-10-09T07:56:26;16.10;99.90
26703;DHT22;14316;51.074;3.704;2023-10-09T07:58:56;16.10;99.90
26703;DHT22;14316;51.074;3.704;2023-10-09T08:01:26;16.10;99.90
26703;DHT22;14316;51.074;3.704;2023-10-09T08:04:04;16.10;99.90
26703;DHT22;14316;51.074;3.704;2023-10-09T08:06:41;16.20;99.90
26703;DHT22;14316;51.074;3.704;2023-10-09T08:09:10;16.30;99.90
26703;DHT22;14316;51.074;3.704;2023-10-09T08:11:46;16.50;99.90
26703;DHT22;14316;51.074;3.704;2023-10-09T08:14:13;16.70;99.90
26703;DHT22;14316;51.074;3.704;2023-10-09T08:16:58;16.90;99.90
26703;DHT22;14316;51.074;3.704;2023-10-09T08:19:51;17.00;99.90
26703;DHT22;14316;51.074;3.704;2023-10-09T08:22:27;17.00;99.90
26703;DHT22;14316;51.074;3.704;2023-10-09T08:24:54;17.10;99.90
26703;DHT22;14316;51.074;3.704;2023-10-09T08:27:26;17.20;99.90
26703;DHT22;14316;51.074;3.704;2023-10-09T08:30:05;17.20;99.90
26703;DHT22;14316;51.074;3.704;2023-10-09T08:32:50;17.30;99.90
26703;DHT22;14316;51.074;3.704;2023-10-09T08:35:37;17.20;99.90
26703;DHT22;14316;51.074;3.704;2023-10-09T08:38:13;17.20;99.90
26703;DHT22;14316;51.074;3.704;2023-10-09T08:40:41;17.20;99.90
26703;DHT22;14316;51.074;3.704;2023-10-09T08:45:41;17.40;99.90
26703;DHT22;14316;51.074;3.704;2023-10-09T08:48:11;17.50;99.90
26703;DHT22;14316;51.074;3.704;2023-10-09T08:50:49;17.60;99.90
26703;DHT22;14316;51.074;3.704;2023-10-09T08:53:16;17.60;99.90
26703;DHT22;14316;51.074;3.704;2023-10-09T08:55:43;17.70;99.90
26703;DHT22;14316;51.074;3.704;2023-10-09T08:58:09;17.60;99.90
26703;DHT22;14316;51.074;3.704;2023-10-09T09:00:54;17.60;99.90
26703;DHT22;14316;51.074;3.704;2023-10-09T09:03:21;17.70;99.90
26703;DHT22;14316;51.074;3.704;2023-10-09T09:05:58;17.90;99.90
26703;DHT22;14316;51.074;3.704;2023-10-09T09:08:29;18.00;99.90
26703;DHT22;14316;51.074;3.704;2023-10-09T09:11:09;18.00;99.90
26703;DHT22;14316;51.074;3.704;2023-10-09T09:13:46;18.00;99.90
26703;DHT22;14316;51.074;3.704;2023-10-09T09:16:16;18.20;99.90
26703;DHT22;14316;51.074;3.704;2023-10-09T09:19:08;18.20;99.90
26703;DHT22;14316;51.074;3.704;2023-10-09T09:21:36;18.30;99.90
26703;DHT22;14316;51.074;3.704;2023-10-09T09:24:11;18.20;99.90
26703;DHT22;14316;51.074;3.704;2023-10-09T09:26:53;18.10;99.90
26703;DHT22;14316;51.074;3.704;2023-10-09T09:32:07;18.20;99.90
26703;DHT22;14316;51.074;3.704;2023-10-09T09:34:47;18.30;99.90
26703;DHT22;14316;51.074;3.704;2023-10-09T09:37:22;18.30;99.90
26703;DHT22;14316;51.074;3.704;2023-10-09T09:39:58;18.40;99.90
26703;DHT22;14316;51.074;3.704;2023-10-09T09:42:27;18.50;99.90
26703;DHT22;14316;51.074;3.704;2023-10-09T09:45:01;18.30;99.90
26703;DHT22;14316;51.074;3.704;2023-10-09T09:47:27;18.20;99.90
26703;DHT22;14316;51.074;3.704;2023-10-09T09:49:56;18.30;99.90
26703;DHT22;14316;51.074;3.704;2023-10-09T09:52:34;18.50;99.90
26703;DHT22;14316;51.074;3.704;2023-10-09T09:55:08;18.70;99.90
26703;DHT22;14316;51.074;3.704;2023-10-09T09:57:48;18.80;99.90
26703;DHT22;14316;51.074;3.704;2023-10-09T10:00:22;18.90;99.90
26703;DHT22;14316;51.074;3.704;2023-10-09T10:03:11;19.00;99.90
26703;DHT22;14316;51.074;3.704;2023-10-09T10:05:40;19.10;99.90
26703;DHT22;14316;51.074;3.704;2023-10-09T10:08:08;19.00;99.90
26703;DHT22;14316;51.074;3.704;2023-10-09T10:10:39;19.10;99.90
26703;DHT22;14316;51.074;3.704;2023-10-09T10:16:17;19.20;99.90
26703;DHT22;14316;51.074;3.704;2023-10-09T10:18:57;19.10;99.90
26703;DHT22;14316;51.074;3.704;2023-10-09T10:21:33;19.20;99.90
26703;DHT22;14316;51.074;3.704;2023-10-09T10:30:28;19.30;99.90
26703;DHT22;14316;51.074;3.704;2023-10-09T10:33:02;19.40;99.90
26703;DHT22;14316;51.074;3.704;2023-10-09T10:35:48;19.50;99.90
26703;DHT22;14316;51.074;3.704;2023-10-09T10:38:33;19.60;99.90
26703;DHT22;14316;51.074;3.704;2023-10-09T10:41:23;19.80;99.90
26703;DHT22;14316;51.074;3.704;2023-10-09T10:43:49;20.10;99.90
26703;DHT22;14316;51.074;3.704;2023-10-09T10:46:19;20.30;99.90
26703;DHT22;14316;51.074;3.704;2023-10-09T10:48:49;20.50;99.90
26703;DHT22;14316;51.074;3.704;2023-10-09T10:51:15;20.30;99.90
26703;DHT22;14316;51.074;3.704;2023-10-09T10:53:54;20.30;99.90
26703;DHT22;14316;51.074;3.704;2023-10-09T10:56:24;20.30;99.90
26703;DHT22;14316;51.074;3.704;2023-10-09T10:59:01;20.60;99.90
26703;DHT22;14316;51.074;3.704;2023-10-09T11:01:33;20.60;99.90
26703;DHT22;14316;51.074;3.704;2023-10-09T11:04:19;20.70;99.90
26703;DHT22;14316;51.074;3.704;2023-10-09T11:06:54;21.00;99.90
26703;DHT22;14316;51.074;3.704;2023-10-09T11:09:44;21.10;99.90
26703;DHT22;14316;51.074;3.704;2023-10-09T11:12:44;21.30;99.90
26703;DHT22;14316;51.074;3.704;2023-10-09T11:15:31;21.40;99.90
26703;DHT22;14316;51.074;3.704;2023-10-09T11:18:10;21.60;99.90
26703;DHT22;14316;51.074;3.704;2023-10-09T11:20:51;21.70;99.90
26703;DHT22;14316;51.074;3.704;2023-10-09T11:23:30;21.90;99.90
26703;DHT22;14316;51.074;3.704;2023-10-09T11:26:00;22.00;99.90
26703;DHT22;14316;51.074;3.704;2023-10-09T11:29:12;22.10;99.90
26703;DHT22;14316;51.074;3.704;2023-10-09T11:32:18;22.30;99.90
26703;DHT22;14316;51.074;3.704;2023-10-09T11:34:48;22.50;99.90
26703;DHT22;14316;51.074;3.704;2023-10-09T11:37:19;22.40;99.90
26703;DHT22;14316;51.074;3.704;2023-10-09T11:40:28;22.60;99.90
26703;DHT22;14316;51.074;3.704;2023-10-09T11:43:13;22.80;99.90
26703;DHT22;14316;51.074;3.704;2023-10-09T11:45:40;22.80;99.90
26703;DHT22;14316;51.074;3.704;2023-10-09T11:48:20;22.80;99.90
26703;DHT22;14316;51.074;3.704;2023-10-09T11:51:15;23.00;99.90
26703;DHT22;14316;51.074;3.704;2023-10-09T11:53:46;23.00;99.90
26703;DHT22;14316;51.074;3.704;2023-10-09T11:56:16;23.20;99.90
26703;DHT22;14316;51.074;3.704;2023-10-09T11:58:49;23.40;99.90
26703;DHT22;14316;51.074;3.704;2023-10-09T12:01:19;23.50;99.90
26703;DHT22;14316;51.074;3.704;2023-10-09T12:03:49;23.60;99.90
26703;DHT22;14316;51.074;3.704;2023-10-09T12:06:17;23.80;99.90
26703;DHT22;14316;51.074;3.704;2023-10-09T12:08:45;24.00;99.90
26703;DHT22;14316;51.074;3.704;2023-10-09T12:11:17;24.10;99.90
26703;DHT22;14316;51.074;3.704;2023-10-09T12:13:55;24.00;99.90
26703;DHT22;14316;51.074;3.704;2023-10-09T12:16:26;23.80;99.90
26703;DHT22;14316;51.074;3.704;2023-10-09T12:18:56;23.70;99.90
26703;DHT22;14316;51.074;3.704;2023-10-09T12:21:23;23.50;99.90
26703;DHT22;14316;51.074;3.704;2023-10-09T12:23:49;23.60;99.90
26703;DHT22;14316;51.074;3.704;2023-10-09T12:26:15;23.80;99.90
26703;DHT22;14316;51.074;3.704;2023-10-09T12:28:43;24.10;99.90
26703;DHT22;14316;51.074;3.704;2023-10-09T12:31:14;24.20;99.90
26703;DHT22;14316;51.074;3.704;2023-10-09T12:33:41;23.90;99.90
26703;DHT22;14316;51.074;3.704;2023-10-09T12:36:12;23.60;99.90
26703;DHT22;14316;51.074;3.704;2023-10-09T12:38:46;23.30;99.90
26703;DHT22;14316;51.074;3.704;2023-10-09T12:41:16;23.30;99.90
26703;DHT22;14316;51.074;3.704;2023-10-09T12:43:52;23.20;99.90
26703;DHT22;14316;51.074;3.704;2023-10-09T12:46:19;23.10;99.90
26703;DHT22;14316;51.074;3.704;2023-10-09T12:48:49;23.20;99.90
26703;DHT22;14316;51.074;3.704;2023-10-09T12:51:15;23.30;99.90
26703;DHT22;14316;51.074;3.704;2023-10-09T12:53:45;23.50;99.90
26703;DHT22;14316;51.074;3.704;2023-10-09T12:56:14;23.60;99.90
26703;DHT22;14316;51.074;3.704;2023-10-09T12:58:41;23.50;99.90
26703;DHT22;14316;51.074;3.704;2023-10-09T13:01:20;23.40;99.90
26703;DHT22;14316;51.074;3.704;2023-10-09T13:03:47;23.40;99.90
26703;DHT22;14316;51.074;3.704;2023-10-09T13:06:15;23.70;99.90
26703;DHT22;14316;51.074;3.704;2023-10-09T13:08:49;24.40;99.90
26703;DHT22;14316;51.074;3.704;2023-10-09T13:11:17;25.10;99.90
26703;DHT22;14316;51.074;3.704;2023-10-09T13:13:45;25.80;99.90
26703;DHT22;14316;51.074;3.704;2023-10-09T13:16:21;26.60;99.90
26703;DHT22;14316;51.074;3.704;2023-10-09T13:18:56;27.10;99.90
26703;DHT22;14316;51.074;3.704;2023-10-09T13:21:26;26.80;99.90
26703;DHT22;14316;51.074;3.704;2023-10-09T13:23:52;27.00;99.90
26703;DHT22;14316;51.074;3.704;2023-10-09T13:26:21;27.40;99.90
26703;DHT22;14316;51.074;3.704;2023-10-09T13:28:54;27.80;99.90
26703;DHT22;14316;51.074;3.704;2023-10-09T13:31:22;27.40;99.90
26703;DHT22;14316;51.074;3.704;2023-10-09T13:33:52;27.00;99.90
26703;DHT22;14316;51.074;3.704;2023-10-09T13:36:23;26.70;99.90
26703;DHT22;14316;51.074;3.704;2023-10-09T13:41:44;25.50;99.90
26703;DHT22;14316;51.074;3.704;2023-10-09T13:44:10;25.50;99.90
26703;DHT22;14316;51.074;3.704;2023-10-09T13:46:36;25.50;99.90
26703;DHT22;14316;51.074;3.704;2023-10-09T13:49:09;25.50;99.90
26703;DHT22;14316;51.074;3.704;2023-10-09T13:51:43;25.50;99.90
26703;DHT22;14316;51.074;3.704;2023-10-09T13:54:14;25.20;99.90
26703;DHT22;14316;51.074;3.704;2023-10-09T13:56:58;25.10;99.90
26703;DHT22;14316;51.074;3.704;2023-10-09T13:59:24;24.80;99.90
26703;DHT22;14316;51.074;3.704;2023-10-09T14:01:54;24.60;99.90
26703;DHT22;14316;51.074;3.704;2023-10-09T14:04:21;24.20;99.90
26703;DHT22;14316;51.074;3.704;2023-10-09T14:06:49;23.70;99.90
26703;DHT22;14316;51.074;3.704;2023-10-09T14:09:25;23.70;99.90
26703;DHT22;14316;51.074;3.704;2023-10-09T14:11:58;23.60;99.90
26703;DHT22;14316;51.074;3.704;2023-10-09T14:14:44;23.30;99.90
26703;DHT22;14316;51.074;3.704;2023-10-09T14:17:14;22.90;99.90
26703;DHT22;14316;51.074;3.704;2023-10-09T14:19:43;22.70;99.90
26703;DHT22;14316;51.074;3.704;2023-10-09T14:22:17;22.50;99.90
26703;DHT22;14316;51.074;3.704;2023-10-09T14:24:44;22.50;99.90
26703;DHT22;14316;51.074;3.704;2023-10-09T14:27:16;22.60;99.90
26703;DHT22;14316;51.074;3.704;2023-10-09T14:29:45;22.80;99.90
26703;DHT22;14316;51.074;3.704;2023-10-09T14:32:12;23.00;99.90
26703;DHT22;14316;51.074;3.704;2023-10-09T14:34:39;23.30;99.90
26703;DHT22;14316;51.074;3.704;2023-10-09T14:37:12;23.50;99.90
26703;DHT22;14316;51.074;3.704;2023-10-09T14:39:41;23.70;99.90
26703;DHT22;14316;51.074;3.704;2023-10-09T14:42:08;23.70;99.90
26703;DHT22;14316;51.074;3.704;2023-10-09T14:44:37;23.40;99.90
26703;DHT22;14316;51.074;3.704;2023-10-09T14:47:06;23.30;99.90
26703;DHT22;14316;51.074;3.704;2023-10-09T14:49:33;23.10;99.90
26703;DHT22;14316;51.074;3.704;2023-10-09T14:52:12;23.30;99.90
26703;DHT22;14316;51.074;3.704;2023-10-09T14:54:42;23.50;99.90
26703;DHT22;14316;51.074;3.704;2023-10-09T14:57:08;23.70;99.90
26703;DHT22;14316;51.074;3.704;2023-10-09T14:59:37;23.50;99.90
26703;DHT22;14316;51.074;3.704;2023-10-09T15:02:03;23.60;99.90
26703;DHT22;14316;51.074;3.704;2023-10-09T15:04:31;23.50;99.90
26703;DHT22;14316;51.074;3.704;2023-10-09T15:06:59;23.60;99.90
26703;DHT22;14316;51.074;3.704;2023-10-09T15:09:27;23.70;99.90
26703;DHT22;14316;51.074;3.704;2023-10-09T15:11:56;24.00;99.90
26703;DHT22;14316;51.074;3.704;2023-10-09T15:14:23;24.90;99.90
26703;DHT22;14316;51.074;3.704;2023-10-09T15:16:49;25.80;99.90
26703;DHT22;14316;51.074;3.704;2023-10-09T15:19:17;26.50;99.90
26703;DHT22;14316;51.074;3.704;2023-10-09T15:21:43;27.30;99.90
26703;DHT22;14316;51.074;3.704;2023-10-09T15:24:14;27.90;99.90
26703;DHT22;14316;51.074;3.704;2023-10-09T15:26:47;28.20;99.90
26703;DHT22;14316;51.074;3.704;2023-10-09T15:29:21;28.30;99.90
26703;DHT22;14316;51.074;3.704;2023-10-09T15:31:59;28.20;99.90
26703;DHT22;14316;51.074;3.704;2023-10-09T15:34:40;28.10;99.90
26703;DHT22;14316;51.074;3.704;2023-10-09T15:37:06;28.00;99.90
26703;DHT22;14316;51.074;3.704;2023-10-09T15:39:34;28.10;99.90
26703;DHT22;14316;51.074;3.704;2023-10-09T15:42:02;28.00;99.90
26703;DHT22;14316;51.074;3.704;2023-10-09T15:44:32;27.60;99.90
26703;DHT22;14316;51.074;3.704;2023-10-09T15:47:05;27.30;99.90
26703;DHT22;14316;51.074;3.704;2023-10-09T15:49:34;27.10;99.90
26703;DHT22;14316;51.074;3.704;2023-10-09T15:52:03;26.70;99.90
26703;DHT22;14316;51.074;3.704;2023-10-09T15:54:29;25.90;99.90
26703;DHT22;14316;51.074;3.704;2023-10-09T15:56:58;25.40;99.90
26703;DHT22;14316;51.074;3.704;2023-10-09T15:59:26;24.90;99.90
26703;DHT22;14316;51.074;3.704;2023-10-09T16:01:51;24.50;99.90
26703;DHT22;14316;51.074;3.704;2023-10-09T16:04:18;24.70;99.90
26703;DHT22;14316;51.074;3.704;2023-10-09T16:06:44;25.00;99.90
26703;DHT22;14316;51.074;3.704;2023-10-09T16:09:10;25.20;99.90
26703;DHT22;14316;51.074;3.704;2023-10-09T16:11:47;25.10;99.90
26703;DHT22;14316;51.074;3.704;2023-10-09T16:14:13;24.90;99.90
26703;DHT22;14316;51.074;3.704;2023-10-09T16:16:41;24.90;99.90
26703;DHT22;14316;51.074;3.704;2023-10-09T16:19:10;24.70;99.90
26703;DHT22;14316;51.074;3.704;2023-10-09T16:21:39;24.50;99.90
26703;DHT22;14316;51.074;3.704;2023-10-09T16:24:06;24.20;99.90
26703;DHT22;14316;51.074;3.704;2023-10-09T16:26:36;23.90;99.90
26703;DHT22;14316;51.074;3.704;2023-10-09T16:29:07;23.60;99.90
26703;DHT22;14316;51.074;3.704;2023-10-09T16:31:37;23.40;99.90